sensor_id;sensor_type;location;lat;lon;timestamp;P1;durP1;ratioP1;P2;durP2;ratioP2
26271;SDS011;13997;48.902;12.472;2022-10-22T00:01:07;36.58;;;21.90;;
26271;SDS011;13997;48.902;12.472;2022-10-22T00:03:33;33.85;;;22.27;;
26271;SDS011;13997;48.902;12.472;2022-10-22T00:05:58;33.92;;;21.00;;
26271;SDS011;13997;48.902;12.472;2022-10-22T00:08:24;35.08;;;21.73;;
26271;SDS011;13997;48.902;12.472;2022-10-22T00:10:50;34.47;;;20.92;;
26271;SDS011;13997;48.902;12.472;2022-10-22T00:13:16;32.17;;;20.75;;
26271;SDS011;13997;48.902;12.472;2022-10-22T00:18:10;30.95;;;19.88;;
26271;SDS011;13997;48.902;12.472;2022-10-22T00:20:35;37.30;;;20.92;;
26271;SDS011;13997;48.902;12.472;2022-10-22T00:23:01;35.67;;;20.90;;
26271;SDS011;13997;48.902;12.472;2022-10-22T00:25:27;28.90;;;20.42;;
26271;SDS011;13997;48.902;12.472;2022-10-22T00:27:52;27.08;;;19.38;;
26271;SDS011;13997;48.902;12.472;2022-10-22T00:30:18;33.60;;;21.00;;
26271;SDS011;13997;48.902;12.472;2022-10-22T00:32:44;33.72;;;21.13;;
26271;SDS011;13997;48.902;12.472;2022-10-22T00:35:09;35.92;;;21.15;;
26271;SDS011;13997;48.902;12.472;2022-10-22T00:37:35;35.25;;;20.65;;
26271;SDS011;13997;48.902;12.472;2022-10-22T00:40:00;34.65;;;22.55;;
26271;SDS011;13997;48.902;12.472;2022-10-22T00:42:27;33.42;;;20.90;;
26271;SDS011;13997;48.902;12.472;2022-10-22T00:47:42;32.45;;;21.27;;
26271;SDS011;13997;48.902;12.472;2022-10-22T00:50:26;35.00;;;20.35;;
26271;SDS011;13997;48.902;12.472;2022-10-22T00:52:57;31.42;;;20.02;;
26271;SDS011;13997;48.902;12.472;2022-10-22T00:55:25;34.05;;;20.85;;
26271;SDS011;13997;48.902;12.472;2022-10-22T00:57:53;34.05;;;21.05;;
26271;SDS011;13997;48.902;12.472;2022-10-22T01:00:19;35.88;;;22.23;;
26271;SDS011;13997;48.902;12.472;2022-10-22T01:02:46;32.70;;;20.70;;
26271;SDS011;13997;48.902;12.472;2022-10-22T01:05:13;37.55;;;21.90;;
26271;SDS011;13997;48.902;12.472;2022-10-22T01:07:40;37.28;;;22.30;;
26271;SDS011;13997;48.902;12.472;2022-10-22T01:12:47;36.33;;;21.67;;
26271;SDS011;13997;48.902;12.472;2022-10-22T01:15:36;42.33;;;22.05;;
26271;SDS011;13997;48.902;12.472;2022-10-22T01:18:20;36.17;;;22.05;;
26271;SDS011;13997;48.902;12.472;2022-10-22T01:21:52;34.65;;;21.75;;
26271;SDS011;13997;48.902;12.472;2022-10-22T01:29:12;32.53;;;21.10;;
26271;SDS011;13997;48.902;12.472;2022-10-22T01:31:42;34.20;;;21.38;;
26271;SDS011;13997;48.902;12.472;2022-10-22T01:34:14;33.30;;;21.25;;
26271;SDS011;13997;48.902;12.472;2022-10-22T01:36:42;34.92;;;20.98;;
26271;SDS011;13997;48.902;12.472;2022-10-22T01:39:09;34.05;;;20.35;;
26271;SDS011;13997;48.902;12.472;2022-10-22T01:41:38;32.78;;;20.55;;
26271;SDS011;13997;48.902;12.472;2022-10-22T01:44:20;32.90;;;19.55;;
26271;SDS011;13997;48.902;12.472;2022-10-22T01:46:52;31.40;;;18.95;;
26271;SDS011;13997;48.902;12.472;2022-10-22T01:49:47;29.52;;;19.17;;
26271;SDS011;13997;48.902;12.472;2022-10-22T01:55:13;32.35;;;19.38;;
26271;SDS011;13997;48.902;12.472;2022-10-22T01:58:01;27.85;;;18.15;;
26271;SDS011;13997;48.902;12.472;2022-10-22T02:00:35;36.42;;;19.55;;
26271;SDS011;13997;48.902;12.472;2022-10-22T02:03:12;35.08;;;20.00;;
26271;SDS011;13997;48.902;12.472;2022-10-22T02:05:44;35.22;;;19.55;;
26271;SDS011;13997;48.902;12.472;2022-10-22T02:08:21;32.47;;;20.52;;
26271;SDS011;13997;48.902;12.472;2022-10-22T02:10:49;33.53;;;20.60;;
26271;SDS011;13997;48.902;12.472;2022-10-22T02:13:26;31.48;;;19.73;;
26271;SDS011;13997;48.902;12.472;2022-10-22T02:16:00;33.30;;;19.50;;
26271;SDS011;13997;48.902;12.472;2022-10-22T02:18:28;29.52;;;20.08;;
26271;SDS011;13997;48.902;12.472;2022-10-22T02:20:56;31.33;;;20.27;;
26271;SDS011;13997;48.902;12.472;2022-10-22T02:23:23;34.70;;;21.63;;
26271;SDS011;13997;48.902;12.472;2022-10-22T02:25:50;38.30;;;22.55;;
26271;SDS011;13997;48.902;12.472;2022-10-22T02:28:37;39.97;;;22.55;;
26271;SDS011;13997;48.902;12.472;2022-10-22T02:31:12;31.83;;;21.48;;
26271;SDS011;13997;48.902;12.472;2022-10-22T02:33:42;30.52;;;21.77;;
26271;SDS011;13997;48.902;12.472;2022-10-22T02:36:11;36.88;;;22.52;;
26271;SDS011;13997;48.902;12.472;2022-10-22T02:38:39;34.13;;;22.73;;
26271;SDS011;13997;48.902;12.472;2022-10-22T02:41:06;33.42;;;21.30;;
26271;SDS011;13997;48.902;12.472;2022-10-22T02:43:39;34.97;;;21.60;;
26271;SDS011;13997;48.902;12.472;2022-10-22T02:46:09;33.85;;;22.92;;
26271;SDS011;13997;48.902;12.472;2022-10-22T02:48:35;34.33;;;22.38;;
26271;SDS011;13997;48.902;12.472;2022-10-22T02:51:02;35.40;;;23.90;;
26271;SDS011;13997;48.902;12.472;2022-10-22T02:53:27;36.08;;;23.40;;
26271;SDS011;13997;48.902;12.472;2022-10-22T02:55:53;33.47;;;22.65;;
26271;SDS011;13997;48.902;12.472;2022-10-22T02:58:19;35.88;;;23.38;;
26271;SDS011;13997;48.902;12.472;2022-10-22T03:00:44;36.88;;;23.67;;
26271;SDS011;13997;48.902;12.472;2022-10-22T03:03:10;33.95;;;20.85;;
26271;SDS011;13997;48.902;12.472;2022-10-22T03:05:35;38.72;;;23.42;;
26271;SDS011;13997;48.902;12.472;2022-10-22T03:08:01;38.40;;;24.20;;
26271;SDS011;13997;48.902;12.472;2022-10-22T03:10:26;34.88;;;22.98;;
26271;SDS011;13997;48.902;12.472;2022-10-22T03:12:52;33.40;;;22.67;;
26271;SDS011;13997;48.902;12.472;2022-10-22T03:15:18;36.95;;;25.00;;
26271;SDS011;13997;48.902;12.472;2022-10-22T03:17:44;35.33;;;23.85;;
26271;SDS011;13997;48.902;12.472;2022-10-22T03:20:09;41.13;;;24.88;;
26271;SDS011;13997;48.902;12.472;2022-10-22T03:22:35;34.38;;;24.15;;
26271;SDS011;13997;48.902;12.472;2022-10-22T03:25:05;35.75;;;24.15;;
26271;SDS011;13997;48.902;12.472;2022-10-22T03:27:34;37.33;;;24.85;;
26271;SDS011;13997;48.902;12.472;2022-10-22T03:30:02;40.35;;;25.05;;
26271;SDS011;13997;48.902;12.472;2022-10-22T03:32:28;41.90;;;25.00;;
26271;SDS011;13997;48.902;12.472;2022-10-22T03:34:54;37.10;;;24.40;;
26271;SDS011;13997;48.902;12.472;2022-10-22T03:37:20;35.30;;;24.23;;
26271;SDS011;13997;48.902;12.472;2022-10-22T03:39:46;38.42;;;24.20;;
26271;SDS011;13997;48.902;12.472;2022-10-22T03:42:12;43.25;;;26.52;;
26271;SDS011;13997;48.902;12.472;2022-10-22T03:44:38;37.47;;;24.92;;
26271;SDS011;13997;48.902;12.472;2022-10-22T03:47:04;38.55;;;27.00;;
26271;SDS011;13997;48.902;12.472;2022-10-22T03:49:30;41.13;;;26.80;;
26271;SDS011;13997;48.902;12.472;2022-10-22T03:51:56;47.15;;;28.52;;
26271;SDS011;13997;48.902;12.472;2022-10-22T03:54:22;42.72;;;27.45;;
26271;SDS011;13997;48.902;12.472;2022-10-22T03:56:47;39.35;;;26.45;;
26271;SDS011;13997;48.902;12.472;2022-10-22T03:59:13;41.97;;;27.83;;
26271;SDS011;13997;48.902;12.472;2022-10-22T04:01:39;44.30;;;28.88;;
26271;SDS011;13997;48.902;12.472;2022-10-22T04:04:05;41.95;;;27.67;;
26271;SDS011;13997;48.902;12.472;2022-10-22T04:06:31;45.08;;;28.60;;
26271;SDS011;13997;48.902;12.472;2022-10-22T04:08:57;38.58;;;27.48;;
26271;SDS011;13997;48.902;12.472;2022-10-22T04:11:23;45.35;;;29.67;;
26271;SDS011;13997;48.902;12.472;2022-10-22T04:13:49;44.17;;;28.10;;
26271;SDS011;13997;48.902;12.472;2022-10-22T04:16:15;41.75;;;26.65;;
26271;SDS011;13997;48.902;12.472;2022-10-22T04:18:44;44.92;;;30.13;;
26271;SDS011;13997;48.902;12.472;2022-10-22T04:21:11;41.03;;;27.80;;
26271;SDS011;13997;48.902;12.472;2022-10-22T04:23:43;47.35;;;28.10;;
26271;SDS011;13997;48.902;12.472;2022-10-22T04:26:12;39.47;;;27.33;;
26271;SDS011;13997;48.902;12.472;2022-10-22T04:28:39;40.28;;;26.48;;
26271;SDS011;13997;48.902;12.472;2022-10-22T04:31:08;46.60;;;27.50;;
26271;SDS011;13997;48.902;12.472;2022-10-22T04:33:35;39.67;;;27.60;;
26271;SDS011;13997;48.902;12.472;2022-10-22T04:36:05;44.83;;;28.33;;
26271;SDS011;13997;48.902;12.472;2022-10-22T04:38:33;42.60;;;26.88;;
26271;SDS011;13997;48.902;12.472;2022-10-22T04:41:15;42.17;;;27.38;;
26271;SDS011;13997;48.902;12.472;2022-10-22T04:43:43;43.30;;;27.27;;
26271;SDS011;13997;48.902;12.472;2022-10-22T04:46:10;43.95;;;27.25;;
26271;SDS011;13997;48.902;12.472;2022-10-22T04:48:37;45.65;;;29.65;;
26271;SDS011;13997;48.902;12.472;2022-10-22T04:51:05;39.10;;;26.65;;
26271;SDS011;13997;48.902;12.472;2022-10-22T04:53:32;39.17;;;26.75;;
26271;SDS011;13997;48.902;12.472;2022-10-22T04:56:06;38.53;;;26.80;;
26271;SDS011;13997;48.902;12.472;2022-10-22T04:58:36;40.38;;;27.17;;
26271;SDS011;13997;48.902;12.472;2022-10-22T05:01:11;41.15;;;26.92;;
26271;SDS011;13997;48.902;12.472;2022-10-22T05:03:39;42.55;;;27.50;;
26271;SDS011;13997;48.902;12.472;2022-10-22T05:06:05;43.00;;;28.25;;
26271;SDS011;13997;48.902;12.472;2022-10-22T05:08:31;37.45;;;27.35;;
26271;SDS011;13997;48.902;12.472;2022-10-22T05:10:57;37.97;;;27.17;;
26271;SDS011;13997;48.902;12.472;2022-10-22T05:13:23;43.40;;;27.55;;
26271;SDS011;13997;48.902;12.472;2022-10-22T05:15:48;41.75;;;27.13;;
26271;SDS011;13997;48.902;12.472;2022-10-22T05:18:14;42.38;;;26.92;;
26271;SDS011;13997;48.902;12.472;2022-10-22T05:20:39;40.95;;;28.52;;
26271;SDS011;13997;48.902;12.472;2022-10-22T05:23:06;41.60;;;27.42;;
26271;SDS011;13997;48.902;12.472;2022-10-22T05:25:35;40.55;;;27.98;;
26271;SDS011;13997;48.902;12.472;2022-10-22T05:28:02;39.30;;;26.75;;
26271;SDS011;13997;48.902;12.472;2022-10-22T05:30:27;45.63;;;28.05;;
26271;SDS011;13997;48.902;12.472;2022-10-22T05:32:53;43.20;;;28.38;;
26271;SDS011;13997;48.902;12.472;2022-10-22T05:35:18;43.17;;;27.73;;
26271;SDS011;13997;48.902;12.472;2022-10-22T05:37:44;40.25;;;27.42;;
26271;SDS011;13997;48.902;12.472;2022-10-22T05:40:09;43.35;;;27.27;;
26271;SDS011;13997;48.902;12.472;2022-10-22T05:42:35;43.78;;;27.02;;
26271;SDS011;13997;48.902;12.472;2022-10-22T05:45:01;45.35;;;27.25;;
26271;SDS011;13997;48.902;12.472;2022-10-22T05:47:28;49.78;;;29.48;;
26271;SDS011;13997;48.902;12.472;2022-10-22T05:49:54;88.05;;;55.95;;
26271;SDS011;13997;48.902;12.472;2022-10-22T05:52:21;48.97;;;31.45;;
26271;SDS011;13997;48.902;12.472;2022-10-22T05:54:48;44.00;;;27.55;;
26271;SDS011;13997;48.902;12.472;2022-10-22T05:57:14;37.72;;;25.52;;
26271;SDS011;13997;48.902;12.472;2022-10-22T05:59:39;38.50;;;24.63;;
26271;SDS011;13997;48.902;12.472;2022-10-22T06:02:05;62.65;;;42.75;;
26271;SDS011;13997;48.902;12.472;2022-10-22T06:04:32;73.10;;;54.25;;
26271;SDS011;13997;48.902;12.472;2022-10-22T06:06:58;46.70;;;32.10;;
26271;SDS011;13997;48.902;12.472;2022-10-22T06:11:58;39.70;;;26.83;;
26271;SDS011;13997;48.902;12.472;2022-10-22T06:14:24;65.05;;;39.40;;
26271;SDS011;13997;48.902;12.472;2022-10-22T06:16:50;46.92;;;32.65;;
26271;SDS011;13997;48.902;12.472;2022-10-22T06:19:18;50.72;;;29.67;;
26271;SDS011;13997;48.902;12.472;2022-10-22T06:21:44;40.08;;;27.33;;
26271;SDS011;13997;48.902;12.472;2022-10-22T06:24:11;41.40;;;27.33;;
26271;SDS011;13997;48.902;12.472;2022-10-22T06:26:37;36.35;;;24.80;;
26271;SDS011;13997;48.902;12.472;2022-10-22T06:29:03;60.80;;;37.97;;
26271;SDS011;13997;48.902;12.472;2022-10-22T06:31:29;60.25;;;35.83;;
26271;SDS011;13997;48.902;12.472;2022-10-22T06:34:04;48.00;;;29.25;;
26271;SDS011;13997;48.902;12.472;2022-10-22T06:36:31;42.35;;;25.13;;
26271;SDS011;13997;48.902;12.472;2022-10-22T06:38:56;38.42;;;25.90;;
26271;SDS011;13997;48.902;12.472;2022-10-22T06:41:23;36.95;;;24.83;;
26271;SDS011;13997;48.902;12.472;2022-10-22T06:43:49;36.13;;;23.17;;
26271;SDS011;13997;48.902;12.472;2022-10-22T06:46:16;34.28;;;21.67;;
26271;SDS011;13997;48.902;12.472;2022-10-22T06:48:46;35.78;;;23.35;;
26271;SDS011;13997;48.902;12.472;2022-10-22T06:51:13;30.17;;;20.60;;
26271;SDS011;13997;48.902;12.472;2022-10-22T06:53:39;34.60;;;22.50;;
26271;SDS011;13997;48.902;12.472;2022-10-22T06:56:06;31.90;;;23.10;;
26271;SDS011;13997;48.902;12.472;2022-10-22T07:01:05;35.78;;;24.35;;
26271;SDS011;13997;48.902;12.472;2022-10-22T07:03:35;40.75;;;25.10;;
26271;SDS011;13997;48.902;12.472;2022-10-22T07:06:03;46.17;;;27.33;;
26271;SDS011;13997;48.902;12.472;2022-10-22T07:08:31;49.25;;;28.95;;
26271;SDS011;13997;48.902;12.472;2022-10-22T07:11:04;42.25;;;25.35;;
26271;SDS011;13997;48.902;12.472;2022-10-22T07:13:32;40.72;;;24.92;;
26271;SDS011;13997;48.902;12.472;2022-10-22T07:15:57;39.47;;;25.40;;
26271;SDS011;13997;48.902;12.472;2022-10-22T07:18:23;35.42;;;25.48;;
26271;SDS011;13997;48.902;12.472;2022-10-22T07:20:48;39.50;;;26.05;;
26271;SDS011;13997;48.902;12.472;2022-10-22T07:23:14;44.97;;;28.02;;
26271;SDS011;13997;48.902;12.472;2022-10-22T07:25:40;39.10;;;26.45;;
26271;SDS011;13997;48.902;12.472;2022-10-22T07:28:06;35.78;;;24.90;;
26271;SDS011;13997;48.902;12.472;2022-10-22T07:30:32;37.50;;;24.67;;
26271;SDS011;13997;48.902;12.472;2022-10-22T07:32:59;36.28;;;24.17;;
26271;SDS011;13997;48.902;12.472;2022-10-22T07:35:24;34.60;;;23.38;;
26271;SDS011;13997;48.902;12.472;2022-10-22T07:37:50;36.78;;;25.48;;
26271;SDS011;13997;48.902;12.472;2022-10-22T07:40:15;47.08;;;27.85;;
26271;SDS011;13997;48.902;12.472;2022-10-22T07:42:41;45.90;;;26.30;;
26271;SDS011;13997;48.902;12.472;2022-10-22T07:45:07;43.72;;;27.83;;
26271;SDS011;13997;48.902;12.472;2022-10-22T07:47:33;47.63;;;30.08;;
26271;SDS011;13997;48.902;12.472;2022-10-22T07:49:58;50.42;;;30.67;;
26271;SDS011;13997;48.902;12.472;2022-10-22T07:52:24;47.10;;;29.08;;
26271;SDS011;13997;48.902;12.472;2022-10-22T07:54:49;49.63;;;28.95;;
26271;SDS011;13997;48.902;12.472;2022-10-22T07:57:15;48.75;;;29.38;;
26271;SDS011;13997;48.902;12.472;2022-10-22T07:59:41;40.95;;;28.92;;
26271;SDS011;13997;48.902;12.472;2022-10-22T08:02:06;50.58;;;28.77;;
26271;SDS011;13997;48.902;12.472;2022-10-22T08:04:33;43.75;;;27.33;;
26271;SDS011;13997;48.902;12.472;2022-10-22T08:06:59;40.08;;;27.98;;
26271;SDS011;13997;48.902;12.472;2022-10-22T08:09:24;46.08;;;27.60;;
26271;SDS011;13997;48.902;12.472;2022-10-22T08:11:50;44.60;;;27.92;;
26271;SDS011;13997;48.902;12.472;2022-10-22T08:14:15;40.95;;;27.38;;
26271;SDS011;13997;48.902;12.472;2022-10-22T08:16:41;40.55;;;27.52;;
26271;SDS011;13997;48.902;12.472;2022-10-22T08:19:06;40.42;;;26.35;;
26271;SDS011;13997;48.902;12.472;2022-10-22T08:21:32;38.50;;;25.13;;
26271;SDS011;13997;48.902;12.472;2022-10-22T08:23:58;38.38;;;24.10;;
26271;SDS011;13997;48.902;12.472;2022-10-22T08:26:23;36.50;;;24.95;;
26271;SDS011;13997;48.902;12.472;2022-10-22T08:28:49;41.67;;;24.92;;
26271;SDS011;13997;48.902;12.472;2022-10-22T08:31:14;37.83;;;24.63;;
26271;SDS011;13997;48.902;12.472;2022-10-22T08:33:40;34.92;;;22.40;;
26271;SDS011;13997;48.902;12.472;2022-10-22T08:36:06;30.42;;;22.40;;
26271;SDS011;13997;48.902;12.472;2022-10-22T08:38:32;38.80;;;23.35;;
26271;SDS011;13997;48.902;12.472;2022-10-22T08:41:07;35.35;;;23.63;;
26271;SDS011;13997;48.902;12.472;2022-10-22T08:46:33;31.83;;;22.42;;
26271;SDS011;13997;48.902;12.472;2022-10-22T08:49:21;31.55;;;20.67;;
26271;SDS011;13997;48.902;12.472;2022-10-22T08:51:57;35.08;;;21.00;;
26271;SDS011;13997;48.902;12.472;2022-10-22T08:59:41;31.75;;;21.48;;
26271;SDS011;13997;48.902;12.472;2022-10-22T09:05:04;30.90;;;20.70;;
26271;SDS011;13997;48.902;12.472;2022-10-22T09:07:44;25.73;;;18.30;;
26271;SDS011;13997;48.902;12.472;2022-10-22T09:10:14;21.83;;;15.73;;
26271;SDS011;13997;48.902;12.472;2022-10-22T09:12:41;17.77;;;11.95;;
26271;SDS011;13997;48.902;12.472;2022-10-22T09:15:11;24.50;;;15.05;;
26271;SDS011;13997;48.902;12.472;2022-10-22T09:26:13;20.23;;;14.23;;
26271;SDS011;13997;48.902;12.472;2022-10-22T09:28:40;18.38;;;13.65;;
26271;SDS011;13997;48.902;12.472;2022-10-22T09:31:12;20.05;;;13.45;;
26271;SDS011;13997;48.902;12.472;2022-10-22T09:33:40;15.63;;;11.18;;
26271;SDS011;13997;48.902;12.472;2022-10-22T09:36:08;16.42;;;9.93;;
26271;SDS011;13997;48.902;12.472;2022-10-22T09:38:43;15.02;;;9.38;;
26271;SDS011;13997;48.902;12.472;2022-10-22T09:41:11;12.73;;;9.77;;
26271;SDS011;13997;48.902;12.472;2022-10-22T09:43:37;13.77;;;8.95;;
26271;SDS011;13997;48.902;12.472;2022-10-22T09:46:04;15.43;;;9.27;;
26271;SDS011;13997;48.902;12.472;2022-10-22T09:48:32;13.20;;;9.18;;
26271;SDS011;13997;48.902;12.472;2022-10-22T09:51:05;13.98;;;8.68;;
26271;SDS011;13997;48.902;12.472;2022-10-22T09:53:38;11.35;;;8.40;;
26271;SDS011;13997;48.902;12.472;2022-10-22T09:56:09;14.95;;;9.70;;
26271;SDS011;13997;48.902;12.472;2022-10-22T09:58:45;14.80;;;9.35;;
26271;SDS011;13997;48.902;12.472;2022-10-22T10:01:16;11.95;;;7.60;;
26271;SDS011;13997;48.902;12.472;2022-10-22T10:03:44;7.47;;;4.20;;
26271;SDS011;13997;48.902;12.472;2022-10-22T10:06:11;5.80;;;2.58;;
26271;SDS011;13997;48.902;12.472;2022-10-22T10:08:43;2.88;;;1.95;;
26271;SDS011;13997;48.902;12.472;2022-10-22T10:14:08;4.57;;;2.30;;
26271;SDS011;13997;48.902;12.472;2022-10-22T10:16:52;4.50;;;1.70;;
26271;SDS011;13997;48.902;12.472;2022-10-22T10:19:44;6.63;;;2.20;;
26271;SDS011;13997;48.902;12.472;2022-10-22T10:30:38;6.55;;;1.70;;
26271;SDS011;13997;48.902;12.472;2022-10-22T10:33:32;6.32;;;1.75;;
26271;SDS011;13997;48.902;12.472;2022-10-22T10:36:41;4.03;;;2.10;;
26271;SDS011;13997;48.902;12.472;2022-10-22T10:39:23;4.13;;;2.00;;
26271;SDS011;13997;48.902;12.472;2022-10-22T10:42:25;5.15;;;2.00;;
26271;SDS011;13997;48.902;12.472;2022-10-22T10:50:40;5.65;;;2.35;;
26271;SDS011;13997;48.902;12.472;2022-10-22T10:54:34;4.75;;;2.65;;
26271;SDS011;13997;48.902;12.472;2022-10-22T11:02:09;6.50;;;2.35;;
26271;SDS011;13997;48.902;12.472;2022-10-22T11:08:04;5.18;;;2.30;;
26271;SDS011;13997;48.902;12.472;2022-10-22T11:16:06;5.45;;;1.63;;
26271;SDS011;13997;48.902;12.472;2022-10-22T11:21:40;4.15;;;1.90;;
26271;SDS011;13997;48.902;12.472;2022-10-22T11:26:56;7.20;;;4.15;;
26271;SDS011;13997;48.902;12.472;2022-10-22T11:29:33;4.70;;;2.25;;
26271;SDS011;13997;48.902;12.472;2022-10-22T11:32:05;7.60;;;2.05;;
26271;SDS011;13997;48.902;12.472;2022-10-22T11:34:38;3.35;;;2.25;;
26271;SDS011;13997;48.902;12.472;2022-10-22T11:37:18;2.08;;;1.40;;
26271;SDS011;13997;48.902;12.472;2022-10-22T11:42:16;6.20;;;4.22;;
26271;SDS011;13997;48.902;12.472;2022-10-22T11:44:57;3.70;;;1.98;;
26271;SDS011;13997;48.902;12.472;2022-10-22T11:47:26;10.85;;;1.52;;
26271;SDS011;13997;48.902;12.472;2022-10-22T11:50:42;3.35;;;1.90;;
26271;SDS011;13997;48.902;12.472;2022-10-22T11:53:34;3.78;;;2.00;;
26271;SDS011;13997;48.902;12.472;2022-10-22T11:55:48;3.53;;;1.80;;
26271;SDS011;13997;48.902;12.472;2022-10-22T11:58:29;2.10;;;1.60;;
26271;SDS011;13997;48.902;12.472;2022-10-22T12:00:55;3.33;;;1.60;;
26271;SDS011;13997;48.902;12.472;2022-10-22T12:16:42;2.80;;;1.10;;
26271;SDS011;13997;48.902;12.472;2022-10-22T12:19:16;3.97;;;1.52;;
26271;SDS011;13997;48.902;12.472;2022-10-22T12:21:51;3.75;;;1.13;;
26271;SDS011;13997;48.902;12.472;2022-10-22T12:24:19;5.57;;;1.10;;
26271;SDS011;13997;48.902;12.472;2022-10-22T12:26:48;2.22;;;1.00;;
26271;SDS011;13997;48.902;12.472;2022-10-22T12:29:16;12.60;;;3.55;;
26271;SDS011;13997;48.902;12.472;2022-10-22T12:31:43;5.05;;;1.35;;
26271;SDS011;13997;48.902;12.472;2022-10-22T12:34:14;7.43;;;3.38;;
26271;SDS011;13997;48.902;12.472;2022-10-22T12:36:42;19.48;;;9.30;;
26271;SDS011;13997;48.902;12.472;2022-10-22T12:39:11;6.00;;;2.17;;
26271;SDS011;13997;48.902;12.472;2022-10-22T12:41:42;6.50;;;1.98;;
26271;SDS011;13997;48.902;12.472;2022-10-22T12:44:10;2.42;;;1.00;;
26271;SDS011;13997;48.902;12.472;2022-10-22T12:46:40;31.23;;;1.30;;
26271;SDS011;13997;48.902;12.472;2022-10-22T12:49:12;2.88;;;0.82;;
26271;SDS011;13997;48.902;12.472;2022-10-22T12:51:44;3.67;;;0.90;;
26271;SDS011;13997;48.902;12.472;2022-10-22T12:56:51;3.25;;;0.70;;
26271;SDS011;13997;48.902;12.472;2022-10-22T12:59:28;6.10;;;1.70;;
26271;SDS011;13997;48.902;12.472;2022-10-22T13:01:59;1.73;;;0.82;;
26271;SDS011;13997;48.902;12.472;2022-10-22T13:09:37;3.67;;;1.00;;
26271;SDS011;13997;48.902;12.472;2022-10-22T13:12:05;3.90;;;1.00;;
26271;SDS011;13997;48.902;12.472;2022-10-22T13:14:35;4.13;;;0.95;;
26271;SDS011;13997;48.902;12.472;2022-10-22T13:17:06;11.95;;;0.90;;
26271;SDS011;13997;48.902;12.472;2022-10-22T13:19:58;3.63;;;0.88;;
26271;SDS011;13997;48.902;12.472;2022-10-22T13:27:43;12.00;;;4.20;;
26271;SDS011;13997;48.902;12.472;2022-10-22T13:30:36;8.98;;;3.30;;
26271;SDS011;13997;48.902;12.472;2022-10-22T13:33:07;3.35;;;1.27;;
26271;SDS011;13997;48.902;12.472;2022-10-22T13:35:47;1.77;;;1.00;;
26271;SDS011;13997;48.902;12.472;2022-10-22T13:38:18;2.58;;;0.95;;
26271;SDS011;13997;48.902;12.472;2022-10-22T13:43:10;5.22;;;0.90;;
26271;SDS011;13997;48.902;12.472;2022-10-22T13:45:36;4.78;;;1.30;;
26271;SDS011;13997;48.902;12.472;2022-10-22T13:48:02;1.45;;;0.80;;
26271;SDS011;13997;48.902;12.472;2022-10-22T13:50:27;3.80;;;1.45;;
26271;SDS011;13997;48.902;12.472;2022-10-22T13:52:54;2.65;;;1.08;;
26271;SDS011;13997;48.902;12.472;2022-10-22T13:55:25;3.63;;;1.60;;
26271;SDS011;13997;48.902;12.472;2022-10-22T13:58:08;6.35;;;2.65;;
26271;SDS011;13997;48.902;12.472;2022-10-22T14:00:36;3.63;;;0.80;;
26271;SDS011;13997;48.902;12.472;2022-10-22T14:03:04;2.38;;;0.80;;
26271;SDS011;13997;48.902;12.472;2022-10-22T14:05:32;2.17;;;0.80;;
26271;SDS011;13997;48.902;12.472;2022-10-22T14:07:58;1.35;;;0.80;;
26271;SDS011;13997;48.902;12.472;2022-10-22T14:10:25;5.10;;;0.90;;
26271;SDS011;13997;48.902;12.472;2022-10-22T14:12:50;1.92;;;0.90;;
26271;SDS011;13997;48.902;12.472;2022-10-22T14:15:18;3.13;;;1.42;;
26271;SDS011;13997;48.902;12.472;2022-10-22T14:17:47;3.15;;;1.20;;
26271;SDS011;13997;48.902;12.472;2022-10-22T14:20:17;5.55;;;1.20;;
26271;SDS011;13997;48.902;12.472;2022-10-22T14:22:46;5.68;;;1.30;;
26271;SDS011;13997;48.902;12.472;2022-10-22T14:25:14;2.58;;;0.75;;
26271;SDS011;13997;48.902;12.472;2022-10-22T14:27:40;1.65;;;0.75;;
26271;SDS011;13997;48.902;12.472;2022-10-22T14:30:06;1.83;;;0.80;;
26271;SDS011;13997;48.902;12.472;2022-10-22T14:32:32;3.17;;;0.82;;
26271;SDS011;13997;48.902;12.472;2022-10-22T14:34:58;3.35;;;0.75;;
26271;SDS011;13997;48.902;12.472;2022-10-22T14:37:25;4.30;;;0.80;;
26271;SDS011;13997;48.902;12.472;2022-10-22T14:39:51;1.08;;;0.70;;
26271;SDS011;13997;48.902;12.472;2022-10-22T14:42:24;4.22;;;0.70;;
26271;SDS011;13997;48.902;12.472;2022-10-22T14:44:50;5.78;;;0.93;;
26271;SDS011;13997;48.902;12.472;2022-10-22T14:47:15;1.90;;;1.13;;
26271;SDS011;13997;48.902;12.472;2022-10-22T14:49:41;2.38;;;1.00;;
26271;SDS011;13997;48.902;12.472;2022-10-22T14:52:07;3.72;;;1.00;;
26271;SDS011;13997;48.902;12.472;2022-10-22T14:54:33;3.92;;;1.10;;
26271;SDS011;13997;48.902;12.472;2022-10-22T14:57:00;3.40;;;1.00;;
26271;SDS011;13997;48.902;12.472;2022-10-22T14:59:27;1.95;;;1.20;;
26271;SDS011;13997;48.902;12.472;2022-10-22T15:01:53;6.47;;;1.80;;
26271;SDS011;13997;48.902;12.472;2022-10-22T15:04:18;3.60;;;1.75;;
26271;SDS011;13997;48.902;12.472;2022-10-22T15:06:44;3.40;;;1.27;;
26271;SDS011;13997;48.902;12.472;2022-10-22T15:09:10;2.00;;;0.90;;
26271;SDS011;13997;48.902;12.472;2022-10-22T15:11:35;2.35;;;1.15;;
26271;SDS011;13997;48.902;12.472;2022-10-22T15:14:01;3.63;;;1.13;;
26271;SDS011;13997;48.902;12.472;2022-10-22T15:16:26;2.00;;;0.98;;
26271;SDS011;13997;48.902;12.472;2022-10-22T15:18:52;4.57;;;1.17;;
26271;SDS011;13997;48.902;12.472;2022-10-22T15:21:19;4.20;;;1.00;;
26271;SDS011;13997;48.902;12.472;2022-10-22T15:23:46;4.07;;;1.20;;
26271;SDS011;13997;48.902;12.472;2022-10-22T15:26:13;2.78;;;0.88;;
26271;SDS011;13997;48.902;12.472;2022-10-22T15:28:40;2.90;;;1.00;;
26271;SDS011;13997;48.902;12.472;2022-10-22T15:31:06;6.15;;;1.20;;
26271;SDS011;13997;48.902;12.472;2022-10-22T15:33:32;6.78;;;1.23;;
26271;SDS011;13997;48.902;12.472;2022-10-22T15:36:07;4.82;;;1.45;;
26271;SDS011;13997;48.902;12.472;2022-10-22T15:38:34;7.32;;;4.43;;
26271;SDS011;13997;48.902;12.472;2022-10-22T15:41:00;7.38;;;3.90;;
26271;SDS011;13997;48.902;12.472;2022-10-22T15:43:27;5.20;;;3.40;;
26271;SDS011;13997;48.902;12.472;2022-10-22T15:46:06;5.80;;;2.67;;
26271;SDS011;13997;48.902;12.472;2022-10-22T15:48:35;5.43;;;1.73;;
26271;SDS011;13997;48.902;12.472;2022-10-22T15:51:05;3.78;;;1.90;;
26271;SDS011;13997;48.902;12.472;2022-10-22T15:53:32;4.82;;;2.20;;
26271;SDS011;13997;48.902;12.472;2022-10-22T15:55:58;5.18;;;2.20;;
26271;SDS011;13997;48.902;12.472;2022-10-22T15:58:23;8.90;;;3.08;;
26271;SDS011;13997;48.902;12.472;2022-10-22T16:00:49;6.03;;;3.05;;
26271;SDS011;13997;48.902;12.472;2022-10-22T16:03:15;5.35;;;2.30;;
26271;SDS011;13997;48.902;12.472;2022-10-22T16:05:48;7.30;;;3.85;;
26271;SDS011;13997;48.902;12.472;2022-10-22T16:08:15;4.07;;;2.60;;
26271;SDS011;13997;48.902;12.472;2022-10-22T16:10:44;3.25;;;2.03;;
26271;SDS011;13997;48.902;12.472;2022-10-22T16:13:11;4.03;;;1.60;;
26271;SDS011;13997;48.902;12.472;2022-10-22T16:15:36;2.58;;;1.50;;
26271;SDS011;13997;48.902;12.472;2022-10-22T16:18:02;3.10;;;1.40;;
26271;SDS011;13997;48.902;12.472;2022-10-22T16:20:28;2.65;;;1.25;;